createdAt,value
2019-02-27T00:00:52.395Z,102612.70
2019-02-27T00:04:55.790Z,102603.02
2019-02-27T00:09:00.580Z,102605.09
2019-02-27T00:13:04.247Z,102603.39
2019-02-27T00:17:08.325Z,102600.45
2019-02-27T00:21:11.794Z,102604.20
2019-02-27T00:25:15.190Z,102604.16
2019-02-27T00:29:18.605Z,102598.71
2019-02-27T00:33:25.060Z,102641.26
2019-02-27T00:37:27.160Z,102599.94
2019-02-27T00:41:30.683Z,102589.48
2019-02-27T00:45:34.089Z,102579.73
2019-02-27T00:49:37.491Z,102577.45
2019-02-27T00:53:40.943Z,102569.88
2019-02-27T00:57:44.408Z,102575.47
2019-02-27T01:01:48.025Z,102574.68
2019-02-27T01:05:51.534Z,102573.86
2019-02-27T01:09:55.001Z,102564.63
2019-02-27T01:13:58.354Z,102575.10
2019-02-27T01:18:01.762Z,102569.66
2019-02-27T01:22:05.584Z,102565.05
2019-02-27T01:26:08.988Z,102553.30
2019-02-27T01:30:14.870Z,102550.32
2019-02-27T01:34:18.263Z,102548.24
2019-02-27T01:38:21.566Z,102535.16
2019-02-27T01:42:24.881Z,102530.11
2019-02-27T01:46:28.449Z,102526.33
2019-02-27T01:50:33.447Z,102519.19
2019-02-27T01:54:36.843Z,102518.34
2019-02-27T01:58:43.307Z,102512.44
2019-02-27T02:02:45.298Z,102503.58
2019-02-27T02:06:48.712Z,102499.78
2019-02-27T02:10:53.927Z,102498.09
2019-02-27T02:15:21.949Z,102493.05
2019-02-27T02:19:54.017Z,102483.39
2019-02-27T02:23:59.793Z,102484.20
2019-02-27T02:28:15.510Z,102478.31
2019-02-27T02:32:34.254Z,102480.41
2019-02-27T02:36:40.966Z,102469.46
2019-02-27T02:40:56.435Z,102463.59
2019-02-27T02:45:33.118Z,102457.30
2019-02-27T02:50:17.461Z,102449.30
2019-02-27T02:54:37.437Z,102451.41
2019-02-27T02:58:57.166Z,102447.20
2019-02-27T03:03:04.332Z,102443.41
2019-02-27T03:07:16.699Z,102439.59
2019-02-27T03:11:29.127Z,102444.25
2019-02-27T03:15:35.704Z,102434.57
2019-02-27T03:19:44.950Z,102420.69
2019-02-27T03:24:09.760Z,102419.41
2019-02-27T03:28:28.441Z,102415.21
2019-02-27T03:32:44.357Z,102398.80
2019-02-27T03:37:17.843Z,102402.59
2019-02-27T03:41:36.364Z,102403.43
2019-02-27T03:45:45.712Z,102392.07
2019-02-27T03:49:52.297Z,102388.28
2019-02-27T03:54:20.930Z,102386.17
2019-02-27T03:58:30.578Z,102376.91
2019-02-27T04:02:53.262Z,102378.19
2019-02-27T04:07:06.082Z,102371.87
2019-02-27T04:11:09.526Z,102362.20
2019-02-27T04:15:17.687Z,102356.73
2019-02-27T04:19:18.157Z,102350.84
2019-02-27T04:23:21.563Z,102348.73
2019-02-27T04:27:24.969Z,102351.68
2019-02-27T04:31:30.577Z,102353.78
2019-02-27T04:35:34.311Z,102350.00
2019-02-27T04:39:38.269Z,102350.84
2019-02-27T04:43:42.187Z,102350.00
2019-02-27T04:47:45.499Z,102350.42
2019-02-27T04:51:50.606Z,102352.94
2019-02-27T04:55:53.953Z,102350.38
2019-02-27T04:59:57.269Z,102348.69
2019-02-27T05:04:01.450Z,102342.80
2019-02-27T05:08:05.507Z,102346.16
2019-02-27T05:12:08.926Z,102344.95
2019-02-27T05:16:14.265Z,102350.00
2019-02-27T05:20:17.478Z,102349.99
2019-02-27T05:24:20.887Z,102357.99
2019-02-27T05:28:24.293Z,102355.05
2019-02-27T05:32:28.294Z,102350.42
2019-02-27T05:36:32.374Z,102349.16
2019-02-27T05:40:35.873Z,102355.05
2019-02-27T05:44:39.566Z,102350.42
2019-02-27T05:48:42.976Z,102352.95
2019-02-27T05:52:48.899Z,102355.05
2019-02-27T05:56:51.539Z,102345.74
2019-02-27T06:00:55.354Z,102343.62
2019-02-27T06:04:59.057Z,102340.67
2019-02-27T06:09:03.914Z,102336.03
2019-02-27T06:13:07.318Z,102331.00
2019-02-27T06:17:12.894Z,102329.34
2019-02-27T06:21:16.606Z,102329.77
2019-02-27T06:25:23.327Z,102333.14
2019-02-27T06:29:25.055Z,102321.80
2019-02-27T06:33:28.370Z,102313.98
2019-02-27T06:37:31.764Z,102306.20
2019-02-27T06:41:35.133Z,102298.77
2019-02-27T06:45:38.819Z,102292.89
2019-02-27T06:49:42.196Z,102288.83
2019-02-27T06:53:46.084Z,102282.18
2019-02-27T06:57:49.527Z,102279.95
2019-02-27T07:01:52.894Z,102269.56
2019-02-27T07:05:56.752Z,102264.70
2019-02-27T07:10:00.281Z,102261.52
2019-02-27T07:14:03.713Z,102250.91
2019-02-27T07:18:07.186Z,102258.36
2019-02-27T07:22:12.650Z,102265.32
2019-02-27T07:26:15.995Z,102256.17
2019-02-27T07:30:23.630Z,102262.10
2019-02-27T07:34:26.552Z,102261.38
2019-02-27T07:38:30.014Z,102259.06
2019-02-27T07:42:33.376Z,102262.17
2019-02-27T07:46:36.886Z,102258.11
2019-02-27T07:50:40.699Z,102254.30
2019-02-27T07:54:44.124Z,102250.88
2019-02-27T07:58:47.516Z,102247.13
2019-02-27T08:02:50.822Z,102246.48
2019-02-27T08:06:54.241Z,102247.63
2019-02-27T08:10:57.649Z,102248.56
2019-02-27T08:15:00.974Z,102245.25
2019-02-27T08:19:04.370Z,102239.35
2019-02-27T08:23:07.778Z,102238.35
2019-02-27T08:27:11.184Z,102233.75
2019-02-27T08:31:14.594Z,102229.96
2019-02-27T08:35:18.004Z,102227.51
2019-02-27T08:39:21.417Z,102224.14
2019-02-27T08:43:24.821Z,102221.69
2019-02-27T08:47:28.227Z,102212.13
2019-02-27T08:51:31.636Z,102213.82
2019-02-27T08:55:38.997Z,102210.14
2019-02-27T08:59:40.771Z,102204.69
2019-02-27T09:03:44.219Z,102192.59
2019-02-27T09:07:47.628Z,102188.63
2019-02-27T09:11:51.044Z,102178.45
2019-02-27T09:15:54.445Z,102164.87
2019-02-27T09:19:57.854Z,102151.62
2019-02-27T09:24:01.267Z,102144.00
2019-02-27T09:28:08.786Z,102136.13
2019-02-27T09:32:11.657Z,102124.13
2019-02-27T09:36:14.981Z,102124.36
2019-02-27T09:40:26.987Z,102119.80
2019-02-27T09:44:30.392Z,102112.67
2019-02-27T09:48:34.103Z,102099.67
2019-02-27T09:52:37.619Z,102100.91
2019-02-27T09:56:41.028Z,102099.38
2019-02-27T10:00:46.447Z,102102.75
2019-02-27T10:04:49.891Z,102089.12
2019-02-27T10:08:53.256Z,102084.86
2019-02-27T10:12:56.618Z,102078.91
2019-02-27T10:17:00.020Z,102072.59
2019-02-27T10:21:03.429Z,102067.30
2019-02-27T10:25:08.619Z,102061.25
2019-02-27T10:29:13.442Z,102051.02
2019-02-27T10:33:18.156Z,102045.83
2019-02-27T10:37:21.636Z,102048.12
2019-02-27T10:41:25.699Z,102028.96
2019-02-27T10:45:29.304Z,102024.47
2019-02-27T10:49:32.720Z,102013.47
2019-02-27T10:53:36.435Z,102010.58
2019-02-27T10:57:39.785Z,102001.53
2019-02-27T11:01:43.250Z,101995.67
2019-02-27T11:05:46.663Z,101969.95
2019-02-27T11:09:50.070Z,101969.95
2019-02-27T11:13:55.431Z,101974.22
2019-02-27T11:18:04.183Z,101969.72
2019-02-27T11:22:03.671Z,101972.57
2019-02-27T11:26:07.084Z,101955.94
2019-02-27T11:30:16.738Z,101955.94
2019-02-27T11:34:20.153Z,101958.30
2019-02-27T11:38:24.784Z,101953.73
2019-02-27T11:42:31.797Z,101946.53
2019-02-27T11:46:35.147Z,101941.28
2019-02-27T11:50:39.106Z,101929.14
2019-02-27T11:54:43.280Z,101924.87
2019-02-27T11:58:47.463Z,101918.00
2019-02-27T12:02:50.872Z,101907.10
2019-02-27T12:06:54.283Z,101899.67
2019-02-27T12:10:57.690Z,101887.70
2019-02-27T12:15:01.099Z,101877.56
2019-02-27T12:19:06.377Z,101870.84
2019-02-27T12:23:10.083Z,101867.19
2019-02-27T12:27:25.688Z,101857.67
2019-02-27T12:31:19.656Z,101844.66
2019-02-27T12:35:25.828Z,101840.67
2019-02-27T12:39:29.236Z,101836.64
2019-02-27T12:43:32.642Z,101836.30
2019-02-27T12:47:37.622Z,101837.06
2019-02-27T12:51:41.198Z,101830.03
2019-02-27T12:55:44.716Z,101823.78
2019-02-27T12:59:48.123Z,101815.35
2019-02-27T13:03:51.537Z,101816.46
2019-02-27T13:07:54.939Z,101822.36
2019-02-27T13:11:58.391Z,101815.05
2019-02-27T13:16:01.759Z,101807.31
2019-02-27T13:20:12.521Z,101809.56
2019-02-27T13:24:16.067Z,101801.82
2019-02-27T13:28:19.562Z,101787.11
2019-02-27T13:32:26.556Z,101773.68
2019-02-27T13:36:28.535Z,101759.81
2019-02-27T13:40:35.143Z,101752.27
2019-02-27T13:44:38.834Z,101748.40
2019-02-27T13:48:42.445Z,101739.05
2019-02-27T13:52:49.902Z,101722.15
2019-02-27T13:56:52.019Z,101717.67
2019-02-27T14:00:55.439Z,101725.94
2019-02-27T14:05:00.622Z,101720.53
2019-02-27T14:09:07.059Z,101708.05
2019-02-27T14:13:10.786Z,101700.63
2019-02-27T14:17:14.247Z,101689.91
2019-02-27T14:21:17.609Z,101682.78
2019-02-27T14:25:33.069Z,101669.31
2019-02-27T14:29:35.380Z,101658.23
2019-02-27T14:33:38.793Z,101665.73
2019-02-27T14:37:42.201Z,101655.30
2019-02-27T14:41:48.221Z,101641.56
2019-02-27T14:45:50.964Z,101637.55
2019-02-27T14:49:54.617Z,101629.81
2019-02-27T14:53:58.907Z,101624.53
2019-02-27T14:58:02.315Z,101620.67
2019-02-27T15:02:05.726Z,101603.91
2019-02-27T15:06:09.133Z,101598.64
2019-02-27T15:10:17.707Z,101595.59
2019-02-27T15:14:21.282Z,101581.65
2019-02-27T15:18:24.788Z,101582.14
2019-02-27T15:22:28.196Z,101579.44
2019-02-27T15:26:31.709Z,101568.12
2019-02-27T15:30:37.288Z,101559.44
2019-02-27T15:34:45.923Z,101558.59
2019-02-27T15:38:50.121Z,101553.55
2019-02-27T15:42:53.447Z,101555.89
2019-02-27T15:46:57.325Z,101550.69
2019-02-27T15:51:04.013Z,101545.39
2019-02-27T15:55:09.314Z,101543.59
2019-02-27T15:59:12.831Z,101542.84
2019-02-27T16:03:16.229Z,101533.03
2019-02-27T16:07:19.631Z,101519.92
2019-02-27T16:11:23.039Z,101525.17
2019-02-27T16:15:26.663Z,101519.32
2019-02-27T16:19:33.817Z,101503.81
2019-02-27T16:23:39.225Z,101511.67
2019-02-27T16:27:46.433Z,101501.80
2019-02-27T16:31:50.550Z,101489.38
2019-02-27T16:35:56.975Z,101482.43
2019-02-27T16:40:00.627Z,101486.27
2019-02-27T16:44:04.044Z,101482.55
2019-02-27T16:48:07.442Z,101478.34
2019-02-27T16:52:10.875Z,101479.06
2019-02-27T16:56:14.258Z,101475.73
2019-02-27T17:00:21.341Z,101464.85
2019-02-27T17:04:24.864Z,101462.51
2019-02-27T17:08:28.424Z,101447.78
2019-02-27T17:12:31.720Z,101448.13
2019-02-27T17:16:38.335Z,101448.48
2019-02-27T17:20:46.083Z,101445.08
2019-02-27T17:24:47.033Z,101430.96
2019-02-27T17:28:51.641Z,101422.33
2019-02-27T17:32:55.591Z,101410.45
2019-02-27T17:36:59.101Z,101411.06
2019-02-27T17:41:02.540Z,101402.34
2019-02-27T17:45:10.027Z,101397.46
2019-02-27T17:49:14.447Z,101391.36
2019-02-27T17:53:20.480Z,101385.00
2019-02-27T17:57:25.031Z,101373.45
2019-02-27T18:01:28.367Z,101367.05
2019-02-27T18:05:31.817Z,101370.31
2019-02-27T18:09:35.202Z,101364.37
2019-02-27T18:13:39.158Z,101358.36
2019-02-27T18:17:42.742Z,101344.67
2019-02-27T18:21:46.262Z,101340.05
2019-02-27T18:25:49.663Z,101334.50
2019-02-27T18:29:53.100Z,101329.57
2019-02-27T18:33:56.504Z,101326.36
2019-02-27T18:37:59.930Z,101315.75
2019-02-27T18:42:04.447Z,101314.70
2019-02-27T18:46:07.837Z,101305.05
2019-02-27T18:50:13.003Z,101297.41
2019-02-27T18:54:16.393Z,101289.15
2019-02-27T18:58:20.958Z,101278.83
2019-02-27T19:02:25.054Z,101262.89
2019-02-27T19:06:28.463Z,101256.44
2019-02-27T19:10:32.021Z,101254.20
2019-02-27T19:14:36.723Z,101247.80
2019-02-27T19:18:41.145Z,101232.06
2019-02-27T19:22:45.273Z,101217.91
2019-02-27T19:26:49.516Z,101212.09
2019-02-27T19:30:53.031Z,101211.03
2019-02-27T19:34:56.422Z,101212.11
2019-02-27T19:38:59.806Z,101202.70
2019-02-27T19:43:04.506Z,101201.42
2019-02-27T19:47:07.988Z,101202.36
2019-02-27T19:51:11.492Z,101193.20
2019-02-27T19:55:15.004Z,101197.30
2019-02-27T19:59:24.639Z,101188.05
2019-02-27T20:03:23.979Z,101180.53
2019-02-27T20:07:27.424Z,101175.16
2019-02-27T20:11:30.796Z,101179.10
2019-02-27T20:15:34.300Z,101169.94
2019-02-27T20:19:37.710Z,101171.17
2019-02-27T20:23:41.223Z,101170.80
2019-02-27T20:27:44.735Z,101162.66
2019-02-27T20:31:48.244Z,101154.98
2019-02-27T20:35:52.401Z,101153.98
2019-02-27T20:39:59.168Z,101141.45
2019-02-27T20:44:03.493Z,101133.57
2019-02-27T20:48:07.718Z,101127.36
2019-02-27T20:52:14.524Z,101119.50
2019-02-27T20:56:16.383Z,101115.36
2019-02-27T21:00:20.740Z,101101.09
2019-02-27T21:04:24.120Z,101097.76
2019-02-27T21:08:27.635Z,101102.34
2019-02-27T21:12:31.041Z,101097.62
2019-02-27T21:16:35.984Z,101089.81
2019-02-27T21:20:39.405Z,101081.56
2019-02-27T21:24:44.542Z,101084.50
2019-02-27T21:28:57.888Z,101083.97
2019-02-27T21:32:53.105Z,101078.94
2019-02-27T21:36:56.510Z,101080.34
2019-02-27T21:40:59.919Z,101069.52
2019-02-27T21:45:04.603Z,101057.43
2019-02-27T21:49:08.275Z,101052.48
2019-02-27T21:53:11.682Z,101041.00
2019-02-27T21:57:15.100Z,101035.15
2019-02-27T22:01:19.246Z,101035.20
2019-02-27T22:05:23.667Z,101025.80
2019-02-27T22:09:27.068Z,101032.50
2019-02-27T22:13:32.317Z,101013.50
2019-02-27T22:17:36.667Z,100997.41
2019-02-27T22:21:41.076Z,100996.50
2019-02-27T22:25:44.483Z,100997.45
2019-02-27T22:29:47.897Z,100984.20
2019-02-27T22:33:53.106Z,100980.09
2019-02-27T22:37:56.454Z,100977.16
2019-02-27T22:41:59.864Z,100977.52
2019-02-27T22:46:03.476Z,100969.20
2019-02-27T22:50:09.879Z,100969.84
2019-02-27T22:54:13.284Z,100965.60
2019-02-27T22:58:16.900Z,100960.38
2019-02-27T23:02:21.592Z,100954.98
2019-02-27T23:06:25.748Z,100960.84
2019-02-27T23:10:30.929Z,100942.55
2019-02-27T23:14:34.305Z,100944.73
2019-02-27T23:18:40.337Z,100934.95
2019-02-27T23:22:42.860Z,100932.84
2019-02-27T23:26:46.268Z,100933.02
2019-02-27T23:30:49.677Z,100921.67
2019-02-27T23:34:53.085Z,100920.53
2019-02-27T23:38:56.492Z,100919.04
2019-02-27T23:43:03.383Z,100912.30
2019-02-27T23:47:05.053Z,100908.68
2019-02-27T23:51:08.768Z,100902.18
2019-02-27T23:55:12.178Z,100901.07
2019-02-27T23:59:15.592Z,100906.75
